Latest Weather Observations for Murrurundi Gap

IDN60801

Issued at 7:40 pm EDT Friday 6 March 2015 (issued every 30 minutes, with the page automatically refreshed every 10 minutes)

About weather observations | Map of weather stations | Latest weather observations for NSW | Other Formats
Station Details ID: 061392 Name: MURRURUNDI GAP AWS Lat: -31.74 Lon: 150.79 Height: 729.4 m
Data from the previous 72 hours. | See also: Recent months for locations in New South Wales
Date/Time
EDT
Temp
°C
App
Temp
°C
Dew
Point
Rel
Hum
%
Delta-T
°C
Wind Press
QNH
hPa
Press
MSL
hPa
Rain
since 9 am
mm
Dir
 
Spd
km/h
Gust
km/h
Spd
kts
Gust
kts
06/07:30pm 21.6 16.6 -1.0 22 10.3 WNW 15 22 8 12 1009.9 1006.6 0.0
06/07:00pm 22.8 17.5 -0.6 21 10.9 WNW 17 28 9 15 1009.6 1006.4 0.0
06/06:30pm 23.7 18.4 -0.6 20 11.4 W 17 30 9 16 1009.3 1006.1 0.0
06/06:00pm 24.3 18.0 -0.8 19 11.8 W 22 30 12 16 1009.0 1005.7 0.0
06/05:30pm 24.3 17.5 -1.5 18 12.0 WNW 24 33 13 18 1008.8 1005.5 0.0
06/05:00pm 25.5 19.6 -0.5 18 12.4 W 20 30 11 16 1008.9 1005.6 0.0
06/04:30pm 25.8 20.2 -0.3 18 12.5 WSW 19 32 10 17 1008.9 1005.6 0.0
06/04:00pm 25.4 18.8 -0.6 18 12.3 NW 24 32 13 17 1008.9 1005.6 0.0
06/03:30pm 25.6 19.1 0.3 19 12.2 WNW 24 33 13 18 1009.1 1005.8 0.0
06/03:00pm 24.7 18.3 -4.6 14 12.9 NW 20 33 11 18 1009.6 1006.4 0.0
06/02:30pm 24.4 17.4 -3.9 15 12.5 NW 24 37 13 20 1010.0 1006.7 0.0
06/02:00pm 23.1 15.8 -5.8 14 12.2 NW 24 44 13 24 1010.3 1007.0 0.0
06/01:30pm 23.2 16.4 -4.8 15 12.1 NW 22 37 12 20 1010.7 1007.5 0.0
06/01:00pm 21.7 14.9 -2.2 20 10.7 NNW 24 33 13 18 1011.0 1007.8 0.0
06/12:30pm 22.0 16.3 0.5 24 10.2 WNW 20 28 11 15 1011.6 1008.3 0.0
06/12:00pm 20.2 12.8 1.6 29 8.8 NW 30 44 16 24 1011.6 1008.3 0.0
06/11:30am 19.5 12.2 2.4 32 8.2 NW 30 43 16 23 1012.0 1008.8 0.0
06/11:00am 19.2 12.9 3.8 36 7.6 NW 26 35 14 19 1012.5 1009.3 0.0
06/10:30am 18.5 13.5 4.7 40 6.9 NW 20 30 11 16 1012.5 1009.3 0.0
06/10:00am 17.4 10.9 4.7 43 6.3 NW 28 35 15 19 1012.0 1008.8 0.0
06/09:30am 16.8 11.4 6.3 50 5.3 NNW 24 32 13 17 1012.2 1009.0 0.0
06/09:00am 15.9 13.2 8.9 63 3.7 NW 13 19 7 10 1012.4 1009.2 0.0
06/08:30am 13.9 13.1 11.6 86 1.3 ESE 7 9 4 5 1012.4 1009.2 0.0
06/08:00am 13.3 12.3 12.4 94 0.5 SE 9 13 5 7 1012.2 1009.0 0.0
06/07:55am 12.8 11.3 12.0 95 0.4 SE 11 13 6 7 1012.2 1009.0 0.0
06/07:30am 11.6 9.2 11.4 99 0.1 SE 15 17 8 9 1012.2 1009.0 0.0
06/07:00am 10.9 8.3 10.7 99 0.1 ESE 15 17 8 9 1012.0 1008.8 0.0
06/06:30am 10.8 8.2 10.6 99 0.1 SE 15 17 8 9 1011.8 1008.6 0.0
06/06:00am 10.7 8.0 10.5 99 0.1 ESE 15 17 8 9 1011.6 1008.3 0.0
06/05:30am 10.9 8.3 10.6 98 0.2 ESE 15 17 8 9 1011.5 1008.2 0.0
06/05:00am 10.9 8.2 10.4 97 0.3 SE 15 17 8 9 1011.5 1008.2 0.0
06/04:32am 11.3 8.3 10.7 96 0.3 SE 17 19 9 10 1011.6 1008.3 0.0
06/04:30am 11.3 8.3 10.7 96 0.3 SE 17 19 9 10 1011.6 1008.3 0.0
06/04:13am 11.4 8.4 10.8 96 0.3 ESE 17 19 9 10 1011.6 1008.3 0.0
06/04:00am 11.4 8.4 10.8 96 0.3 ESE 17 19 9 10 1011.6 1008.3 0.0
06/03:56am 11.4 8.1 10.8 96 0.3 ESE 19 19 10 10 1011.6 1008.3 0.0
06/03:30am 11.6 9.1 11.0 96 0.3 SE 15 17 8 9 1011.6 1008.3 0.0
06/03:00am 11.6 8.6 10.8 95 0.4 ESE 17 20 9 11 1011.9 1008.7 0.0
06/02:30am 11.9 8.4 10.8 93 0.6 SE 20 24 11 13 1012.1 1008.9 0.0
06/02:00am 12.5 7.9 10.9 90 0.9 SE 26 30 14 16 1012.3 1009.1 0.0
06/01:30am 12.8 7.8 10.9 88 1.0 SSE 28 33 15 18 1012.6 1009.4 0.0
06/01:00am 13.1 7.8 11.2 88 1.0 SE 30 39 16 21 1012.9 1009.6 0.0
06/12:30am 13.2 7.5 11.1 87 1.1 SE 32 39 17 21 1013.0 1009.8 0.0
06/12:00am 13.5 7.3 11.4 87 1.2 SE 35 44 19 24 1013.1 1009.9 0.0
 
Date/Time
EDT
Temp
°C
App
Temp
°C
Dew
Point
Rel
Hum
%
Delta-T
°C
Wind Press
QNH
hPa
Press
MSL
hPa
Rain
since 9 am
mm
Dir
 
Spd
km/h
Gust
km/h
Spd
kts
Gust
kts
05/11:30pm 13.8 8.0 11.5 86 1.3 SE 33 43 18 23 1013.2 1010.0 0.0
05/11:00pm 14.0 8.4 11.5 85 1.4 SE 32 46 17 25 1013.2 1010.0 0.0
05/10:30pm 14.7 9.0 11.8 83 1.6 SSE 33 54 18 29 1013.0 1009.8 0.0
05/10:27pm 14.5 9.4 11.8 84 1.5 SE 30 50 16 27 1013.1 1009.9 0.0
05/10:00pm 15.1 9.7 12.2 83 1.6 SSE 32 44 17 24 1012.9 1009.6 0.0
05/09:30pm 16.4 13.4 12.4 77 2.3 E 20 30 11 16 1012.5 1009.3 0.0
05/09:00pm 17.5 15.1 11.5 68 3.4 ESE 15 20 8 11 1012.2 1009.0 0.0
05/08:30pm 19.7 16.6 7.1 44 6.6 SE 13 17 7 9 1011.8 1008.6 0.0
05/08:00pm 21.3 16.5 2.6 29 9.1 W 17 20 9 11 1011.0 1007.8 0.0
05/07:30pm 21.9 18.5 2.1 27 9.6 WSW 9 15 5 8 1010.7 1007.5 0.0
05/07:00pm 23.2 17.6 1.5 24 10.5 WSW 20 24 11 13 1010.3 1007.0 0.0
05/06:30pm 24.7 20.0 0.9 21 11.5 WSW 15 22 8 12 1010.3 1007.0 0.0
05/06:00pm 25.8 22.8 0.5 19 12.3 S 6 11 3 6 1010.3 1007.0 0.0
05/05:30pm 25.4 20.0 -1.4 17 12.5 SW 17 22 9 12 1010.2 1006.9 0.0
05/05:00pm 26.3 20.4 -2.4 15 13.3 WSW 19 30 10 16 1010.0 1006.7 0.0
05/04:30pm 27.3 20.4 -5.7 11 14.5 W 22 37 12 20 1010.0 1006.7 0.0
05/04:00pm 27.1 20.7 -4.7 12 14.2 W 20 35 11 19 1010.0 1006.7 0.0
05/03:30pm 26.7 19.6 1.2 19 12.6 W 28 43 15 23 1010.1 1006.8 0.0
05/03:00pm 27.0 19.8 0.7 18 12.9 WNW 28 43 15 23 1010.3 1007.0 0.0
05/02:30pm 27.4 20.9 0.2 17 13.3 W 24 39 13 21 1010.5 1007.3 0.0
05/02:00pm 27.4 21.9 1.8 19 12.9 WNW 20 30 11 16 1010.7 1007.5 0.0
05/01:30pm 25.4 17.8 0.8 20 12.0 WNW 30 43 16 23 1010.9 1007.7 0.0
05/01:10pm 26.0 19.0 2.0 21 12.0 WNW 28 46 15 25 1011.2 1008.0 0.0
05/01:00pm 25.6 17.7 1.0 20 12.0 WNW 32 44 17 24 1011.1 1007.9 0.0
05/12:46pm 25.5 18.2 0.2 19 12.2 WNW 28 46 15 25 1011.5 1008.2 0.0
05/12:30pm 25.7 18.0 -0.4 18 12.4 W 30 43 16 23 1011.5 1008.2 0.0
05/12:00pm 25.3 17.7 -2.3 16 12.7 WNW 28 39 15 21 1011.6 1008.3 0.0
05/11:34am 24.5 16.7 -3.8 15 12.5 NW 28 46 15 25 1011.7 1008.4 0.0
05/11:30am 24.9 17.9 -3.5 15 12.7 NW 24 37 13 20 1011.8 1008.6 0.0
05/11:04am 24.3 16.3 -5.8 13 12.8 WNW 28 46 15 25 1011.8 1008.6 0.0
05/11:00am 23.8 15.8 -6.2 13 12.7 WNW 28 39 15 21 1011.8 1008.6 0.0
05/10:30am 24.1 17.4 -4.1 15 12.4 WNW 22 32 12 17 1011.9 1008.7 0.0
05/10:00am 23.4 16.8 -3.0 17 11.8 W 22 37 12 20 1012.0 1008.8 0.0
05/09:30am 22.5 16.9 1.5 25 10.1 W 20 32 11 17 1012.1 1008.9 0.0
05/09:00am 23.1 17.2 4.1 29 9.7 W 24 35 13 19 1011.7 1008.4 0.0
05/08:30am 22.6 18.9 4.2 30 9.3 WNW 13 32 7 17 1011.7 1008.4 0.0
05/08:03am 22.1 19.1 4.2 31 9.1 WNW 9 17 5 9 1011.5 1008.2 0.0
05/08:00am 22.1 18.6 3.7 30 9.2 WNW 11 17 6 9 1011.5 1008.2 0.0
05/07:39am 22.0 17.0 3.6 30 9.2 WSW 19 30 10 16 1011.1 1007.9 0.0
05/07:30am 21.3 17.8 3.5 31 8.8 W 11 20 6 11 1011.0 1007.8 0.0
05/07:00am 20.9 17.7 5.3 36 8.0 NW 11 13 6 7 1010.4 1007.1 0.0
05/06:30am 21.8 19.0 5.3 34 8.5 NW 9 13 5 7 1010.4 1007.1 0.0
05/06:00am 22.2 18.9 4.7 32 9.0 NW 11 13 6 7 1010.1 1006.8 0.0
05/05:30am 22.8 19.8 3.9 29 9.6 NW 9 13 5 7 1009.9 1006.6 0.0
05/05:00am 23.1 20.5 4.1 29 9.7 WNW 7 11 4 6 1009.9 1006.6 0.0
05/04:30am 23.1 20.6 4.6 30 9.5 NW 7 9 4 5 1010.1 1006.8 0.0
05/04:00am 23.6 22.2 3.5 27 10.2 CALM 0 0 0 0 1010.3 1007.0 0.0
05/03:30am 23.6 20.5 3.5 27 10.1 ESE 9 15 5 8 1010.4 1007.1 0.0
05/03:00am 23.8 21.1 3.7 27 10.2 SE 7 9 4 5 1010.6 1007.4 0.0
05/02:30am 23.9 22.5 3.8 27 10.2 CALM 0 0 0 0 1010.9 1007.7 0.0
05/02:00am 24.5 21.7 3.2 25 10.8 WNW 7 11 4 6 1011.2 1008.0 0.0
05/01:30am 24.5 21.6 4.8 28 10.2 NW 9 13 5 7 1011.5 1008.2 0.0
05/01:00am 24.6 21.7 4.9 28 10.3 WNW 9 13 5 7 1011.8 1008.6 0.0
05/12:30am 24.8 22.5 5.6 29 10.1 WNW 7 11 4 6 1011.9 1008.7 0.0
05/12:00am 25.3 23.1 6.0 29 10.3 WNW 7 15 4 8 1011.9 1008.7 0.0
 
Date/Time
EDT
Temp
°C
App
Temp
°C
Dew
Point
Rel
Hum
%
Delta-T
°C
Wind Press
QNH
hPa
Press
MSL
hPa
Rain
since 9 am
mm
Dir
 
Spd
km/h
Gust
km/h
Spd
kts
Gust
kts
04/11:30pm 25.8 22.4 5.9 28 10.6 W 13 17 7 9 1012.0 1008.8 0.0
04/11:00pm 26.2 23.1 5.7 27 10.9 W 11 17 6 9 1012.1 1008.9 0.0
04/10:30pm 26.7 23.8 6.7 28 10.9 W 11 17 6 9 1012.1 1008.9 0.0
04/10:00pm 27.2 25.7 8.6 31 10.5 W 6 7 3 4 1012.0 1008.8 0.0
04/09:30pm 27.9 27.5 9.7 32 10.5 SW 2 7 1 4 1012.0 1008.8 0.0
04/09:00pm 28.1 26.4 9.9 32 10.5 SSW 9 13 5 7 1011.8 1008.6 0.0
04/08:35pm 28.7 27.0 11.3 34 10.3 SW 11 17 6 9 1011.6 1008.3 0.0
04/08:30pm 28.9 27.0 11.9 35 10.2 SW 13 20 7 11 1011.5 1008.2 0.0
04/08:17pm 28.6 28.1 12.5 37 9.7 SW 7 11 4 6 1011.4 1008.1 0.0
04/08:00pm 28.7 28.5 13.0 38 9.6 WSW 6 7 3 4 1011.2 1008.0 0.0
04/07:30pm 29.7 28.2 13.0 35 10.2 W 13 20 7 11 1011.0 1007.8 0.0
04/07:00pm 30.5 28.2 12.9 34 10.8 WNW 17 24 9 13 1011.0 1007.8 0.0
04/06:30pm 30.6 26.4 12.5 33 11.0 WNW 26 35 14 19 1011.0 1007.8 0.0
04/06:00pm 31.3 26.0 12.6 31 11.4 WNW 32 43 17 23 1010.8 1007.6 0.0
04/05:30pm 31.4 26.0 12.7 32 11.4 WNW 33 52 18 28 1010.8 1007.6 0.0
04/05:05pm 31.2 25.3 12.5 31 11.4 NW 35 54 19 29 1010.9 1007.7 0.0
04/05:00pm 31.3 24.9 13.1 33 11.2 NW 39 54 21 29 1010.8 1007.6 0.0
04/04:30pm 30.8 25.1 13.1 34 10.9 NW 35 48 19 26 1011.0 1007.8 0.0
04/04:00pm 30.1 25.0 13.8 37 10.1 NW 33 43 18 23 1011.6 1008.3 0.0
04/03:30pm 29.9 23.6 13.6 36 10.0 NW 39 52 21 28 1011.8 1008.6 0.0
04/03:00pm 29.5 23.0 14.1 39 9.6 NW 41 50 22 27 1012.1 1008.9 0.0
04/02:30pm 29.4 20.6 14.4 40 9.3 NW 54 67 29 36 1011.9 1008.7 0.0
04/02:22pm 30.1 22.9 13.8 37 10.1 NW 44 67 24 36 1012.3 1009.1 0.0
04/02:04pm 29.4 22.3 14.0 39 9.5 NW 44 59 24 32 1012.6 1009.4 0.0
04/02:00pm 29.7 22.9 14.3 39 9.6 NW 43 63 23 34 1012.6 1009.4 0.0
04/01:35pm 28.7 21.4 14.5 42 8.8 NW 46 69 25 37 1012.9 1009.6 0.0
04/01:30pm 29.5 22.6 14.5 40 9.4 NW 44 59 24 32 1013.0 1009.8 0.0
04/01:27pm 29.7 22.5 14.7 40 9.4 NW 46 65 25 35 1013.0 1009.8 0.0
04/01:00pm 28.7 22.0 15.2 43 8.5 NW 44 57 24 31 1013.4 1010.2 0.0
04/12:41pm 27.8 20.2 14.8 45 8.1 NW 48 70 26 38 1013.5 1010.3 0.0
04/12:30pm 27.9 20.5 15.2 46 8.0 NW 48 63 26 34 1013.7 1010.5 0.0
04/12:00pm 27.7 20.5 15.7 48 7.6 NW 48 67 26 36 1014.5 1011.3 0.0
04/11:57am 28.2 21.4 15.8 47 7.9 NW 46 65 25 35 1014.6 1011.4 0.0
04/11:30am 27.3 21.4 16.6 52 6.8 NW 43 56 23 30 1015.2 1012.0 0.0
04/11:00am 26.9 21.0 16.8 54 6.5 NW 43 54 23 29 1015.5 1012.4 0.0
04/10:30am 25.4 20.6 16.5 58 5.6 NW 37 50 20 27 1015.9 1012.7 0.0
04/10:00am 24.6 20.1 16.3 60 5.2 WNW 35 46 19 25 1016.0 1012.8 0.0
04/09:30am 23.9 20.7 16.4 63 4.7 NW 28 37 15 20 1016.3 1013.1 0.0
04/09:00am 23.5 21.3 16.8 66 4.2 NW 24 30 13 16 1016.2 1013.0 0.0
04/08:30am 23.2 20.9 16.7 67 4.1 WNW 24 28 13 15 1015.8 1012.6 0.0
04/08:00am 23.2 21.0 17.0 68 3.9 NW 24 32 13 17 1015.4 1012.3 0.0
04/07:30am 22.5 20.5 16.5 69 3.8 NW 22 28 12 15 1015.0 1011.8 0.0
04/07:00am 21.9 20.8 16.4 71 3.4 NW 17 19 9 10 1014.7 1011.5 0.0
04/06:35am 22.5 21.5 16.5 69 3.8 NW 17 20 9 11 1014.4 1011.2 0.0
04/06:30am 22.3 21.7 16.6 70 3.6 NW 15 19 8 10 1014.3 1011.1 0.0
04/06:01am 18.1 17.8 15.5 85 1.6 NNE 11 20 6 11 1014.1 1011.0 0.0
04/06:00am 18.3 18.0 15.4 83 1.8 N 11 20 6 11 1014.1 1011.0 0.0
04/05:59am 18.9 18.3 15.6 81 2.0 N 13 20 7 11 1014.1 1011.0 0.0
04/05:30am 17.4 18.1 17.1 98 0.2 SE 9 15 5 8 1014.0 1010.8 0.0
04/05:11am 17.5 18.1 16.7 95 0.5 SE 9 11 5 6 1013.9 1010.7 0.0
04/05:00am 18.4 19.6 17.4 94 0.6 SE 7 9 4 5 1013.9 1010.7 0.0
04/04:30am 18.6 20.0 17.3 92 0.8 SE 6 11 3 6 1013.9 1010.7 0.0
04/04:00am 18.7 19.4 16.1 85 1.6 ESE 7 9 4 5 1013.9 1010.7 0.0
04/03:30am 19.9 20.6 16.0 78 2.4 ESE 7 11 4 6 1014.1 1011.0 0.0
04/03:00am 23.3 24.0 15.6 62 4.8 NW 6 9 3 5 1014.3 1011.1 0.0
04/02:30am 21.5 23.5 16.9 75 2.9 SE 2 7 1 4 1014.5 1011.3 0.0
04/02:00am 20.4 21.9 15.8 75 2.8 SSE 2 9 1 5 1014.6 1011.4 0.0
04/01:30am 24.7 25.7 14.2 52 6.4 WSW 2 7 1 4 1014.7 1011.5 0.0
04/01:00am 25.5 25.2 14.3 50 6.9 N 9 15 5 8 1014.8 1011.6 0.0
04/12:30am 26.0 26.0 14.1 47 7.3 NNW 7 13 4 7 1015.1 1011.9 0.0
04/12:00am 26.2 25.9 14.3 48 7.3 NNE 9 15 5 8 1015.2 1012.0 0.0
 
Date/Time
EDT
Temp
°C
App
Temp
°C
Dew
Point
Rel
Hum
%
Delta-T
°C
Wind Press
QNH
hPa
Press
MSL
hPa
Rain
since 9 am
mm
Dir
 
Spd
km/h
Gust
km/h
Spd
kts
Gust
kts
03/11:30pm 26.5 24.6 14.3 47 7.5 NNE 17 22 9 12 1015.1 1011.9 0.0
03/11:00pm 26.6 24.6 14.0 46 7.7 NNE 17 24 9 13 1015.3 1012.1 0.0
03/10:30pm 27.0 26.3 14.4 46 7.8 NNE 11 15 6 8 1015.6 1012.5 0.0
03/10:00pm 27.1 25.2 14.1 44 8.0 NNE 17 20 9 11 1015.5 1012.4 0.0
03/09:30pm 27.3 26.1 14.0 44 8.2 N 13 17 7 9 1015.5 1012.4 0.0
03/09:00pm 27.4 26.2 14.1 44 8.2 N 13 15 7 8 1015.3 1012.1 0.0
03/08:30pm 27.6 26.9 14.3 44 8.2 N 11 15 6 8 1015.2 1012.0 0.0
03/08:00pm 27.8 27.0 14.1 43 8.4 N 11 13 6 7 1015.0 1011.8 0.0

Other Formats:

Comma delimited format used in spreadsheet applications
http://www.bom.gov.au/fwo/IDN60801/IDN60801.95747.axf

JavaScript Object Notation format (JSON) in row-major order
http://www.bom.gov.au/fwo/IDN60801/IDN60801.95747.json